sensor_id;sensor_type;location;lat;lon;timestamp;temperature;humidity
60293;DHT22;52402;52.670;6.750;2022-08-16T00:01:58;21.50;99.90
60293;DHT22;52402;52.670;6.750;2022-08-16T00:04:23;21.50;99.90
60293;DHT22;52402;52.670;6.750;2022-08-16T00:06:49;21.50;99.90
60293;DHT22;52402;52.670;6.750;2022-08-16T00:09:15;21.40;99.90
60293;DHT22;52402;52.670;6.750;2022-08-16T00:11:42;21.40;99.90
60293;DHT22;52402;52.670;6.750;2022-08-16T00:14:12;21.40;99.90
60293;DHT22;52402;52.670;6.750;2022-08-16T00:16:38;21.30;99.90
60293;DHT22;52402;52.670;6.750;2022-08-16T00:19:04;21.20;99.90
60293;DHT22;52402;52.670;6.750;2022-08-16T00:21:30;21.20;99.90
60293;DHT22;52402;52.670;6.750;2022-08-16T00:23:57;21.20;99.90
60293;DHT22;52402;52.670;6.750;2022-08-16T00:26:23;21.20;99.90
60293;DHT22;52402;52.670;6.750;2022-08-16T00:28:49;21.10;99.90
60293;DHT22;52402;52.670;6.750;2022-08-16T00:31:14;21.10;99.90
60293;DHT22;52402;52.670;6.750;2022-08-16T00:33:40;21.10;99.90
60293;DHT22;52402;52.670;6.750;2022-08-16T00:36:06;21.10;99.90
60293;DHT22;52402;52.670;6.750;2022-08-16T00:38:31;21.00;99.90
60293;DHT22;52402;52.670;6.750;2022-08-16T00:40:59;21.10;99.90
60293;DHT22;52402;52.670;6.750;2022-08-16T00:43:33;21.00;99.90
60293;DHT22;52402;52.670;6.750;2022-08-16T00:48:33;21.00;99.90
60293;DHT22;52402;52.670;6.750;2022-08-16T00:51:00;21.00;99.90
60293;DHT22;52402;52.670;6.750;2022-08-16T00:53:26;21.00;99.90
60293;DHT22;52402;52.670;6.750;2022-08-16T00:55:54;21.00;99.90
60293;DHT22;52402;52.670;6.750;2022-08-16T00:58:23;20.90;99.90
60293;DHT22;52402;52.670;6.750;2022-08-16T01:00:50;20.90;99.90
60293;DHT22;52402;52.670;6.750;2022-08-16T01:03:18;20.90;99.90
60293;DHT22;52402;52.670;6.750;2022-08-16T01:05:44;20.90;99.90
60293;DHT22;52402;52.670;6.750;2022-08-16T01:08:12;20.90;99.90
60293;DHT22;52402;52.670;6.750;2022-08-16T01:10:38;20.90;99.90
60293;DHT22;52402;52.670;6.750;2022-08-16T01:13:11;20.90;99.90
60293;DHT22;52402;52.670;6.750;2022-08-16T01:15:40;20.80;99.90
60293;DHT22;52402;52.670;6.750;2022-08-16T01:18:09;20.80;99.90
60293;DHT22;52402;52.670;6.750;2022-08-16T01:20:41;20.80;99.90
60293;DHT22;52402;52.670;6.750;2022-08-16T01:23:33;20.80;99.90
60293;DHT22;52402;52.670;6.750;2022-08-16T01:26:00;20.80;99.90
60293;DHT22;52402;52.670;6.750;2022-08-16T01:28:26;20.70;99.90
60293;DHT22;52402;52.670;6.750;2022-08-16T01:30:55;20.70;99.90
60293;DHT22;52402;52.670;6.750;2022-08-16T01:33:22;20.80;99.90
60293;DHT22;52402;52.670;6.750;2022-08-16T01:38:43;20.70;99.90
60293;DHT22;52402;52.670;6.750;2022-08-16T01:41:22;20.70;99.90
60293;DHT22;52402;52.670;6.750;2022-08-16T01:43:49;20.70;99.90
60293;DHT22;52402;52.670;6.750;2022-08-16T01:46:28;20.70;99.90
60293;DHT22;52402;52.670;6.750;2022-08-16T01:48:58;20.70;99.90
60293;DHT22;52402;52.670;6.750;2022-08-16T01:51:24;20.60;99.90
60293;DHT22;52402;52.670;6.750;2022-08-16T01:53:51;20.50;99.90
60293;DHT22;52402;52.670;6.750;2022-08-16T01:56:18;20.50;99.90
60293;DHT22;52402;52.670;6.750;2022-08-16T01:58:43;20.50;99.90
60293;DHT22;52402;52.670;6.750;2022-08-16T02:01:09;20.50;99.90
60293;DHT22;52402;52.670;6.750;2022-08-16T02:03:35;20.50;99.90
60293;DHT22;52402;52.670;6.750;2022-08-16T02:06:00;20.40;99.90
60293;DHT22;52402;52.670;6.750;2022-08-16T02:08:26;20.30;99.90
60293;DHT22;52402;52.670;6.750;2022-08-16T02:10:53;20.30;99.90
60293;DHT22;52402;52.670;6.750;2022-08-16T02:13:19;20.30;99.90
60293;DHT22;52402;52.670;6.750;2022-08-16T02:15:45;20.20;99.90
60293;DHT22;52402;52.670;6.750;2022-08-16T02:18:12;20.20;99.90
60293;DHT22;52402;52.670;6.750;2022-08-16T02:20:38;20.10;99.90
60293;DHT22;52402;52.670;6.750;2022-08-16T02:23:05;20.10;99.90
60293;DHT22;52402;52.670;6.750;2022-08-16T02:25:32;20.00;99.90
60293;DHT22;52402;52.670;6.750;2022-08-16T02:27:57;20.00;99.90
60293;DHT22;52402;52.670;6.750;2022-08-16T02:30:27;20.00;99.90
60293;DHT22;52402;52.670;6.750;2022-08-16T02:32:53;20.00;99.90
60293;DHT22;52402;52.670;6.750;2022-08-16T02:35:20;19.90;99.90
60293;DHT22;52402;52.670;6.750;2022-08-16T02:37:47;19.90;99.90
60293;DHT22;52402;52.670;6.750;2022-08-16T02:40:13;19.70;99.90
60293;DHT22;52402;52.670;6.750;2022-08-16T02:42:45;19.70;99.90
60293;DHT22;52402;52.670;6.750;2022-08-16T02:45:11;19.70;99.90
60293;DHT22;52402;52.670;6.750;2022-08-16T02:47:37;19.60;99.90
60293;DHT22;52402;52.670;6.750;2022-08-16T02:50:04;19.50;99.90
60293;DHT22;52402;52.670;6.750;2022-08-16T02:52:30;19.50;99.90
60293;DHT22;52402;52.670;6.750;2022-08-16T02:54:56;19.50;99.90
60293;DHT22;52402;52.670;6.750;2022-08-16T02:57:22;19.60;99.90
60293;DHT22;52402;52.670;6.750;2022-08-16T02:59:48;19.50;99.90
60293;DHT22;52402;52.670;6.750;2022-08-16T03:02:15;19.50;99.90
60293;DHT22;52402;52.670;6.750;2022-08-16T03:04:41;19.50;99.90
60293;DHT22;52402;52.670;6.750;2022-08-16T03:07:06;19.50;99.90
60293;DHT22;52402;52.670;6.750;2022-08-16T03:09:33;19.40;99.90
60293;DHT22;52402;52.670;6.750;2022-08-16T03:11:59;19.40;99.90
60293;DHT22;52402;52.670;6.750;2022-08-16T03:14:25;19.30;99.90
60293;DHT22;52402;52.670;6.750;2022-08-16T03:16:52;19.30;99.90
60293;DHT22;52402;52.670;6.750;2022-08-16T03:19:18;19.30;99.90
60293;DHT22;52402;52.670;6.750;2022-08-16T03:21:44;19.30;99.90
60293;DHT22;52402;52.670;6.750;2022-08-16T03:24:11;19.20;99.90
60293;DHT22;52402;52.670;6.750;2022-08-16T03:26:37;19.20;99.90
60293;DHT22;52402;52.670;6.750;2022-08-16T03:29:03;19.20;99.90
60293;DHT22;52402;52.670;6.750;2022-08-16T03:31:29;19.20;99.90
60293;DHT22;52402;52.670;6.750;2022-08-16T03:33:54;19.10;99.90
60293;DHT22;52402;52.670;6.750;2022-08-16T03:36:20;19.10;99.90
60293;DHT22;52402;52.670;6.750;2022-08-16T03:38:46;19.10;99.90
60293;DHT22;52402;52.670;6.750;2022-08-16T03:41:11;19.00;99.90
60293;DHT22;52402;52.670;6.750;2022-08-16T03:43:37;19.00;99.90
60293;DHT22;52402;52.670;6.750;2022-08-16T03:46:03;19.00;99.90
60293;DHT22;52402;52.670;6.750;2022-08-16T03:48:35;18.90;99.90
60293;DHT22;52402;52.670;6.750;2022-08-16T03:51:03;18.90;99.90
60293;DHT22;52402;52.670;6.750;2022-08-16T03:53:29;18.90;99.90
60293;DHT22;52402;52.670;6.750;2022-08-16T03:55:55;18.80;99.90
60293;DHT22;52402;52.670;6.750;2022-08-16T03:58:21;18.80;99.90
60293;DHT22;52402;52.670;6.750;2022-08-16T04:00:47;18.80;99.90
60293;DHT22;52402;52.670;6.750;2022-08-16T04:03:14;18.80;99.90
60293;DHT22;52402;52.670;6.750;2022-08-16T04:05:43;18.80;99.90
60293;DHT22;52402;52.670;6.750;2022-08-16T04:08:11;18.80;99.90
60293;DHT22;52402;52.670;6.750;2022-08-16T04:10:37;18.70;99.90
60293;DHT22;52402;52.670;6.750;2022-08-16T04:13:03;18.70;99.90
60293;DHT22;52402;52.670;6.750;2022-08-16T04:15:29;18.70;99.90
60293;DHT22;52402;52.670;6.750;2022-08-16T04:17:56;18.60;99.90
60293;DHT22;52402;52.670;6.750;2022-08-16T04:20:23;18.60;99.90
60293;DHT22;52402;52.670;6.750;2022-08-16T04:22:48;18.60;99.90
60293;DHT22;52402;52.670;6.750;2022-08-16T04:25:14;18.60;99.90
60293;DHT22;52402;52.670;6.750;2022-08-16T04:27:40;18.60;99.90
60293;DHT22;52402;52.670;6.750;2022-08-16T04:30:10;18.50;99.90
60293;DHT22;52402;52.670;6.750;2022-08-16T04:32:37;18.50;99.90
60293;DHT22;52402;52.670;6.750;2022-08-16T04:35:05;18.50;99.90
60293;DHT22;52402;52.670;6.750;2022-08-16T04:37:31;18.50;99.90
60293;DHT22;52402;52.670;6.750;2022-08-16T04:39:56;18.50;99.90
60293;DHT22;52402;52.670;6.750;2022-08-16T04:42:22;18.50;99.90
60293;DHT22;52402;52.670;6.750;2022-08-16T04:44:47;18.50;99.90
60293;DHT22;52402;52.670;6.750;2022-08-16T04:47:13;18.50;99.90
60293;DHT22;52402;52.670;6.750;2022-08-16T04:49:39;18.50;99.90
60293;DHT22;52402;52.670;6.750;2022-08-16T04:52:05;18.40;99.90
60293;DHT22;52402;52.670;6.750;2022-08-16T04:54:31;18.40;99.90
60293;DHT22;52402;52.670;6.750;2022-08-16T04:56:57;18.40;99.90
60293;DHT22;52402;52.670;6.750;2022-08-16T04:59:23;18.40;99.90
60293;DHT22;52402;52.670;6.750;2022-08-16T05:01:48;18.40;99.90
60293;DHT22;52402;52.670;6.750;2022-08-16T05:04:23;18.40;99.90
60293;DHT22;52402;52.670;6.750;2022-08-16T05:06:49;18.40;99.90
60293;DHT22;52402;52.670;6.750;2022-08-16T05:09:15;18.40;99.90
60293;DHT22;52402;52.670;6.750;2022-08-16T05:11:41;18.40;99.90
60293;DHT22;52402;52.670;6.750;2022-08-16T05:14:06;18.40;99.90
60293;DHT22;52402;52.670;6.750;2022-08-16T05:16:32;18.50;99.90
60293;DHT22;52402;52.670;6.750;2022-08-16T05:18:59;18.50;99.90
60293;DHT22;52402;52.670;6.750;2022-08-16T05:21:26;18.50;99.90
60293;DHT22;52402;52.670;6.750;2022-08-16T05:23:55;18.50;99.90
60293;DHT22;52402;52.670;6.750;2022-08-16T05:26:21;18.60;99.90
60293;DHT22;52402;52.670;6.750;2022-08-16T05:28:48;18.60;99.90
60293;DHT22;52402;52.670;6.750;2022-08-16T05:31:15;18.70;99.90
60293;DHT22;52402;52.670;6.750;2022-08-16T05:33:42;18.70;99.90
60293;DHT22;52402;52.670;6.750;2022-08-16T05:36:08;18.70;99.90
60293;DHT22;52402;52.670;6.750;2022-08-16T05:38:34;18.80;99.90
60293;DHT22;52402;52.670;6.750;2022-08-16T05:41:02;18.80;99.90
60293;DHT22;52402;52.670;6.750;2022-08-16T05:43:28;18.90;99.90
60293;DHT22;52402;52.670;6.750;2022-08-16T05:45:54;18.90;99.90
60293;DHT22;52402;52.670;6.750;2022-08-16T05:48:21;18.90;99.90
60293;DHT22;52402;52.670;6.750;2022-08-16T05:50:47;19.00;99.90
60293;DHT22;52402;52.670;6.750;2022-08-16T05:53:13;19.10;99.90
60293;DHT22;52402;52.670;6.750;2022-08-16T05:55:38;19.20;99.90
60293;DHT22;52402;52.670;6.750;2022-08-16T05:58:04;19.30;99.90
60293;DHT22;52402;52.670;6.750;2022-08-16T06:00:30;19.40;99.90
60293;DHT22;52402;52.670;6.750;2022-08-16T06:02:56;19.60;99.90
60293;DHT22;52402;52.670;6.750;2022-08-16T06:05:23;19.80;99.90
60293;DHT22;52402;52.670;6.750;2022-08-16T06:07:49;20.00;99.90
60293;DHT22;52402;52.670;6.750;2022-08-16T06:10:15;20.10;99.90
60293;DHT22;52402;52.670;6.750;2022-08-16T06:12:40;20.30;99.90
60293;DHT22;52402;52.670;6.750;2022-08-16T06:15:14;20.40;99.90
60293;DHT22;52402;52.670;6.750;2022-08-16T06:17:41;20.50;99.90
60293;DHT22;52402;52.670;6.750;2022-08-16T06:20:08;20.60;99.90
60293;DHT22;52402;52.670;6.750;2022-08-16T06:22:36;20.60;99.90
60293;DHT22;52402;52.670;6.750;2022-08-16T06:25:03;20.70;99.90
60293;DHT22;52402;52.670;6.750;2022-08-16T06:27:28;20.70;99.90
60293;DHT22;52402;52.670;6.750;2022-08-16T06:29:54;20.70;99.90
60293;DHT22;52402;52.670;6.750;2022-08-16T06:32:19;20.80;99.90
60293;DHT22;52402;52.670;6.750;2022-08-16T06:34:45;20.80;99.90
60293;DHT22;52402;52.670;6.750;2022-08-16T06:37:10;20.80;99.90
60293;DHT22;52402;52.670;6.750;2022-08-16T06:39:36;20.80;99.90
60293;DHT22;52402;52.670;6.750;2022-08-16T06:42:02;20.80;99.90
60293;DHT22;52402;52.670;6.750;2022-08-16T06:44:28;20.80;99.90
60293;DHT22;52402;52.670;6.750;2022-08-16T06:46:53;20.90;99.90
60293;DHT22;52402;52.670;6.750;2022-08-16T06:49:19;20.90;99.90
60293;DHT22;52402;52.670;6.750;2022-08-16T06:51:45;21.00;99.90
60293;DHT22;52402;52.670;6.750;2022-08-16T06:54:12;21.00;99.90
60293;DHT22;52402;52.670;6.750;2022-08-16T06:56:38;21.20;99.90
60293;DHT22;52402;52.670;6.750;2022-08-16T06:59:03;21.20;99.90
60293;DHT22;52402;52.670;6.750;2022-08-16T07:01:29;21.30;99.90
60293;DHT22;52402;52.670;6.750;2022-08-16T07:03:55;21.20;99.90
60293;DHT22;52402;52.670;6.750;2022-08-16T07:06:21;21.20;99.90
60293;DHT22;52402;52.670;6.750;2022-08-16T07:08:47;21.20;99.90
60293;DHT22;52402;52.670;6.750;2022-08-16T07:11:15;21.20;99.90
60293;DHT22;52402;52.670;6.750;2022-08-16T07:13:41;21.20;99.90
60293;DHT22;52402;52.670;6.750;2022-08-16T07:16:08;21.20;99.90
60293;DHT22;52402;52.670;6.750;2022-08-16T07:18:39;21.20;99.90
60293;DHT22;52402;52.670;6.750;2022-08-16T07:21:05;21.30;99.90
60293;DHT22;52402;52.670;6.750;2022-08-16T07:23:30;21.30;99.90
60293;DHT22;52402;52.670;6.750;2022-08-16T07:25:56;21.40;99.90
60293;DHT22;52402;52.670;6.750;2022-08-16T07:28:22;21.40;99.90
60293;DHT22;52402;52.670;6.750;2022-08-16T07:30:48;21.50;99.90
60293;DHT22;52402;52.670;6.750;2022-08-16T07:33:14;21.60;99.90
60293;DHT22;52402;52.670;6.750;2022-08-16T07:35:42;21.70;99.90
60293;DHT22;52402;52.670;6.750;2022-08-16T07:38:08;21.70;99.90
60293;DHT22;52402;52.670;6.750;2022-08-16T07:40:35;21.80;99.90
60293;DHT22;52402;52.670;6.750;2022-08-16T07:43:01;21.80;99.90
60293;DHT22;52402;52.670;6.750;2022-08-16T07:45:27;22.00;99.90
60293;DHT22;52402;52.670;6.750;2022-08-16T07:47:52;22.00;99.90
60293;DHT22;52402;52.670;6.750;2022-08-16T07:50:18;22.10;99.90
60293;DHT22;52402;52.670;6.750;2022-08-16T07:52:44;22.20;99.90
60293;DHT22;52402;52.670;6.750;2022-08-16T07:55:12;22.30;99.90
60293;DHT22;52402;52.670;6.750;2022-08-16T07:57:39;22.30;99.90
60293;DHT22;52402;52.670;6.750;2022-08-16T08:00:06;22.40;99.90
60293;DHT22;52402;52.670;6.750;2022-08-16T08:02:32;22.60;99.90
60293;DHT22;52402;52.670;6.750;2022-08-16T08:04:58;22.70;99.90
60293;DHT22;52402;52.670;6.750;2022-08-16T08:07:24;22.80;99.90
60293;DHT22;52402;52.670;6.750;2022-08-16T08:09:51;22.90;99.90
60293;DHT22;52402;52.670;6.750;2022-08-16T08:12:17;23.00;99.90
60293;DHT22;52402;52.670;6.750;2022-08-16T08:14:46;23.10;99.90
60293;DHT22;52402;52.670;6.750;2022-08-16T08:17:13;23.20;99.90
60293;DHT22;52402;52.670;6.750;2022-08-16T08:19:39;23.30;99.90
60293;DHT22;52402;52.670;6.750;2022-08-16T08:22:06;23.40;99.90
60293;DHT22;52402;52.670;6.750;2022-08-16T08:24:34;23.50;99.90
60293;DHT22;52402;52.670;6.750;2022-08-16T08:27:03;23.50;99.90
60293;DHT22;52402;52.670;6.750;2022-08-16T08:29:30;23.60;99.90
60293;DHT22;52402;52.670;6.750;2022-08-16T08:31:56;23.70;99.90
60293;DHT22;52402;52.670;6.750;2022-08-16T08:34:22;23.80;99.90
60293;DHT22;52402;52.670;6.750;2022-08-16T08:36:48;23.90;99.90
60293;DHT22;52402;52.670;6.750;2022-08-16T08:39:15;23.90;99.90
60293;DHT22;52402;52.670;6.750;2022-08-16T08:41:42;24.00;99.90
60293;DHT22;52402;52.670;6.750;2022-08-16T08:44:11;24.10;99.90
60293;DHT22;52402;52.670;6.750;2022-08-16T08:46:37;24.20;99.90
60293;DHT22;52402;52.670;6.750;2022-08-16T08:49:03;24.20;99.90
60293;DHT22;52402;52.670;6.750;2022-08-16T08:51:33;24.30;99.90
60293;DHT22;52402;52.670;6.750;2022-08-16T08:53:58;24.40;99.90
60293;DHT22;52402;52.670;6.750;2022-08-16T08:56:24;24.50;99.90
60293;DHT22;52402;52.670;6.750;2022-08-16T08:58:50;24.60;99.90
60293;DHT22;52402;52.670;6.750;2022-08-16T09:01:21;24.60;99.90
60293;DHT22;52402;52.670;6.750;2022-08-16T09:03:47;24.70;99.90
60293;DHT22;52402;52.670;6.750;2022-08-16T09:06:13;24.80;99.90
60293;DHT22;52402;52.670;6.750;2022-08-16T09:08:38;24.90;99.90
60293;DHT22;52402;52.670;6.750;2022-08-16T09:11:04;25.00;99.90
60293;DHT22;52402;52.670;6.750;2022-08-16T09:13:30;25.00;99.90
60293;DHT22;52402;52.670;6.750;2022-08-16T09:15:57;25.00;99.90
60293;DHT22;52402;52.670;6.750;2022-08-16T09:18:23;25.10;99.90
60293;DHT22;52402;52.670;6.750;2022-08-16T09:20:50;25.10;99.90
60293;DHT22;52402;52.670;6.750;2022-08-16T09:23:17;25.20;99.90
60293;DHT22;52402;52.670;6.750;2022-08-16T09:25:43;25.20;99.90
60293;DHT22;52402;52.670;6.750;2022-08-16T09:28:09;25.30;99.90
60293;DHT22;52402;52.670;6.750;2022-08-16T09:30:36;25.40;99.90
60293;DHT22;52402;52.670;6.750;2022-08-16T09:33:03;25.40;99.90
60293;DHT22;52402;52.670;6.750;2022-08-16T09:35:29;25.50;99.90
60293;DHT22;52402;52.670;6.750;2022-08-16T09:37:55;25.60;99.90
60293;DHT22;52402;52.670;6.750;2022-08-16T09:40:22;25.70;99.90
60293;DHT22;52402;52.670;6.750;2022-08-16T09:42:48;25.70;99.90
60293;DHT22;52402;52.670;6.750;2022-08-16T09:45:13;25.80;99.90
60293;DHT22;52402;52.670;6.750;2022-08-16T09:47:39;25.90;99.90
60293;DHT22;52402;52.670;6.750;2022-08-16T09:50:10;25.90;99.90
60293;DHT22;52402;52.670;6.750;2022-08-16T09:52:37;26.00;99.90
60293;DHT22;52402;52.670;6.750;2022-08-16T09:55:08;26.10;99.90
60293;DHT22;52402;52.670;6.750;2022-08-16T09:57:35;26.20;99.90
60293;DHT22;52402;52.670;6.750;2022-08-16T10:00:05;26.30;99.40
60293;DHT22;52402;52.670;6.750;2022-08-16T10:02:32;26.40;99.70
60293;DHT22;52402;52.670;6.750;2022-08-16T10:04:58;26.50;99.30
60293;DHT22;52402;52.670;6.750;2022-08-16T10:07:28;26.60;98.90
60293;DHT22;52402;52.670;6.750;2022-08-16T10:09:54;26.70;99.00
60293;DHT22;52402;52.670;6.750;2022-08-16T10:12:20;26.80;98.40
60293;DHT22;52402;52.670;6.750;2022-08-16T10:15:05;26.80;98.70
60293;DHT22;52402;52.670;6.750;2022-08-16T10:17:33;27.00;98.10
60293;DHT22;52402;52.670;6.750;2022-08-16T10:19:59;27.00;97.60
60293;DHT22;52402;52.670;6.750;2022-08-16T10:22:25;27.10;97.10
60293;DHT22;52402;52.670;6.750;2022-08-16T10:24:51;27.20;97.10
60293;DHT22;52402;52.670;6.750;2022-08-16T10:27:17;27.20;96.70
60293;DHT22;52402;52.670;6.750;2022-08-16T10:29:42;27.40;96.80
60293;DHT22;52402;52.670;6.750;2022-08-16T10:32:08;27.40;96.30
60293;DHT22;52402;52.670;6.750;2022-08-16T10:34:34;27.60;96.00
60293;DHT22;52402;52.670;6.750;2022-08-16T10:37:01;27.70;96.10
60293;DHT22;52402;52.670;6.750;2022-08-16T10:39:27;27.90;95.40
60293;DHT22;52402;52.670;6.750;2022-08-16T10:41:52;27.90;95.00
60293;DHT22;52402;52.670;6.750;2022-08-16T10:44:19;28.10;94.60
60293;DHT22;52402;52.670;6.750;2022-08-16T10:46:45;28.10;94.20
60293;DHT22;52402;52.670;6.750;2022-08-16T10:49:11;28.30;93.70
60293;DHT22;52402;52.670;6.750;2022-08-16T10:51:37;28.30;93.10
60293;DHT22;52402;52.670;6.750;2022-08-16T10:54:04;28.30;93.00
60293;DHT22;52402;52.670;6.750;2022-08-16T10:56:30;28.40;93.10
60293;DHT22;52402;52.670;6.750;2022-08-16T10:58:56;28.60;92.50
60293;DHT22;52402;52.670;6.750;2022-08-16T11:01:24;28.80;92.00
60293;DHT22;52402;52.670;6.750;2022-08-16T11:03:53;28.90;91.80
60293;DHT22;52402;52.670;6.750;2022-08-16T11:06:19;29.10;92.10
60293;DHT22;52402;52.670;6.750;2022-08-16T11:08:46;29.20;90.90
60293;DHT22;52402;52.670;6.750;2022-08-16T11:11:12;29.30;90.70
60293;DHT22;52402;52.670;6.750;2022-08-16T11:13:40;29.50;90.10
60293;DHT22;52402;52.670;6.750;2022-08-16T11:16:07;29.60;88.80
60293;DHT22;52402;52.670;6.750;2022-08-16T11:18:33;29.80;90.30
60293;DHT22;52402;52.670;6.750;2022-08-16T11:20:59;29.80;89.00
60293;DHT22;52402;52.670;6.750;2022-08-16T11:23:26;30.00;88.00
60293;DHT22;52402;52.670;6.750;2022-08-16T11:25:53;30.00;85.50
60293;DHT22;52402;52.670;6.750;2022-08-16T11:28:20;30.10;82.90
60293;DHT22;52402;52.670;6.750;2022-08-16T11:30:46;30.20;81.40
60293;DHT22;52402;52.670;6.750;2022-08-16T11:33:12;30.40;80.30
60293;DHT22;52402;52.670;6.750;2022-08-16T11:35:39;30.50;80.00
60293;DHT22;52402;52.670;6.750;2022-08-16T11:38:16;30.60;79.70
60293;DHT22;52402;52.670;6.750;2022-08-16T11:40:48;30.80;79.40
60293;DHT22;52402;52.670;6.750;2022-08-16T11:43:18;30.90;78.70
60293;DHT22;52402;52.670;6.750;2022-08-16T11:45:48;31.00;79.40
60293;DHT22;52402;52.670;6.750;2022-08-16T11:48:14;31.10;77.40
60293;DHT22;52402;52.670;6.750;2022-08-16T11:50:42;31.20;76.10
60293;DHT22;52402;52.670;6.750;2022-08-16T11:53:08;31.30;75.60
60293;DHT22;52402;52.670;6.750;2022-08-16T11:55:35;31.40;74.60
60293;DHT22;52402;52.670;6.750;2022-08-16T11:58:02;31.30;73.00
60293;DHT22;52402;52.670;6.750;2022-08-16T12:00:30;31.20;72.90
60293;DHT22;52402;52.670;6.750;2022-08-16T12:02:56;31.30;73.40
60293;DHT22;52402;52.670;6.750;2022-08-16T12:05:23;31.40;73.30
60293;DHT22;52402;52.670;6.750;2022-08-16T12:07:50;31.40;72.20
60293;DHT22;52402;52.670;6.750;2022-08-16T12:10:17;31.70;71.80
60293;DHT22;52402;52.670;6.750;2022-08-16T12:12:44;31.80;72.80
60293;DHT22;52402;52.670;6.750;2022-08-16T12:15:11;31.80;71.50
60293;DHT22;52402;52.670;6.750;2022-08-16T12:17:38;31.90;72.00
60293;DHT22;52402;52.670;6.750;2022-08-16T12:20:09;31.80;71.30
60293;DHT22;52402;52.670;6.750;2022-08-16T12:22:36;31.90;71.40
60293;DHT22;52402;52.670;6.750;2022-08-16T12:25:07;32.00;71.00
60293;DHT22;52402;52.670;6.750;2022-08-16T12:27:33;32.20;69.90
60293;DHT22;52402;52.670;6.750;2022-08-16T12:29:59;32.50;69.50
60293;DHT22;52402;52.670;6.750;2022-08-16T12:32:26;32.40;68.70
60293;DHT22;52402;52.670;6.750;2022-08-16T12:34:52;32.60;68.50
60293;DHT22;52402;52.670;6.750;2022-08-16T12:37:17;32.50;69.50
60293;DHT22;52402;52.670;6.750;2022-08-16T12:39:44;32.30;68.00
60293;DHT22;52402;52.670;6.750;2022-08-16T12:42:09;31.80;67.50
60293;DHT22;52402;52.670;6.750;2022-08-16T12:44:36;31.70;68.30
60293;DHT22;52402;52.670;6.750;2022-08-16T12:47:02;31.50;68.10
60293;DHT22;52402;52.670;6.750;2022-08-16T12:49:46;31.30;68.50
60293;DHT22;52402;52.670;6.750;2022-08-16T12:52:13;31.10;68.90
60293;DHT22;52402;52.670;6.750;2022-08-16T12:54:39;30.90;68.40
60293;DHT22;52402;52.670;6.750;2022-08-16T12:57:06;31.00;69.00
60293;DHT22;52402;52.670;6.750;2022-08-16T12:59:33;31.20;69.20
60293;DHT22;52402;52.670;6.750;2022-08-16T13:02:00;31.60;68.50
60293;DHT22;52402;52.670;6.750;2022-08-16T13:04:27;32.00;68.50
60293;DHT22;52402;52.670;6.750;2022-08-16T13:06:53;32.40;68.90
60293;DHT22;52402;52.670;6.750;2022-08-16T13:09:22;32.70;68.00
60293;DHT22;52402;52.670;6.750;2022-08-16T13:12:09;32.80;67.70
60293;DHT22;52402;52.670;6.750;2022-08-16T13:14:49;32.50;67.30
60293;DHT22;52402;52.670;6.750;2022-08-16T13:17:22;32.50;67.00
60293;DHT22;52402;52.670;6.750;2022-08-16T13:19:49;32.80;67.60
60293;DHT22;52402;52.670;6.750;2022-08-16T13:22:15;32.80;67.70
60293;DHT22;52402;52.670;6.750;2022-08-16T13:24:41;32.90;67.30
60293;DHT22;52402;52.670;6.750;2022-08-16T13:27:07;32.90;67.20
60293;DHT22;52402;52.670;6.750;2022-08-16T13:29:32;32.90;67.70
60293;DHT22;52402;52.670;6.750;2022-08-16T13:31:58;33.00;68.80
60293;DHT22;52402;52.670;6.750;2022-08-16T13:34:24;33.00;66.10
60293;DHT22;52402;52.670;6.750;2022-08-16T13:36:49;33.20;65.80
60293;DHT22;52402;52.670;6.750;2022-08-16T13:39:15;32.70;65.30
60293;DHT22;52402;52.670;6.750;2022-08-16T13:41:42;32.50;64.50
60293;DHT22;52402;52.670;6.750;2022-08-16T13:44:07;32.40;65.00
60293;DHT22;52402;52.670;6.750;2022-08-16T13:46:33;32.60;65.20
60293;DHT22;52402;52.670;6.750;2022-08-16T13:48:59;32.90;65.90
60293;DHT22;52402;52.670;6.750;2022-08-16T13:51:26;32.90;65.50
60293;DHT22;52402;52.670;6.750;2022-08-16T13:53:56;33.00;65.40
60293;DHT22;52402;52.670;6.750;2022-08-16T13:56:23;33.20;65.90
60293;DHT22;52402;52.670;6.750;2022-08-16T13:58:49;33.20;65.20
60293;DHT22;52402;52.670;6.750;2022-08-16T14:01:16;33.40;66.00
60293;DHT22;52402;52.670;6.750;2022-08-16T14:03:44;33.40;65.30
60293;DHT22;52402;52.670;6.750;2022-08-16T14:06:10;33.20;65.20
60293;DHT22;52402;52.670;6.750;2022-08-16T14:08:37;32.90;65.10
60293;DHT22;52402;52.670;6.750;2022-08-16T14:11:03;32.70;65.60
60293;DHT22;52402;52.670;6.750;2022-08-16T14:13:31;32.50;67.20
60293;DHT22;52402;52.670;6.750;2022-08-16T14:15:57;32.30;66.90
60293;DHT22;52402;52.670;6.750;2022-08-16T14:18:22;32.10;66.50
60293;DHT22;52402;52.670;6.750;2022-08-16T14:20:48;31.80;67.00
60293;DHT22;52402;52.670;6.750;2022-08-16T14:23:14;31.70;67.70
60293;DHT22;52402;52.670;6.750;2022-08-16T14:25:40;31.70;69.10
60293;DHT22;52402;52.670;6.750;2022-08-16T14:28:06;31.80;68.40
60293;DHT22;52402;52.670;6.750;2022-08-16T14:30:31;31.70;67.70
60293;DHT22;52402;52.670;6.750;2022-08-16T14:32:57;31.40;68.00
60293;DHT22;52402;52.670;6.750;2022-08-16T14:35:28;31.10;68.00
60293;DHT22;52402;52.670;6.750;2022-08-16T14:37:54;30.90;68.10
60293;DHT22;52402;52.670;6.750;2022-08-16T14:40:20;30.70;68.80
60293;DHT22;52402;52.670;6.750;2022-08-16T14:42:48;30.40;69.70
60293;DHT22;52402;52.670;6.750;2022-08-16T14:45:16;30.40;71.40
60293;DHT22;52402;52.670;6.750;2022-08-16T14:47:42;30.40;70.80
60293;DHT22;52402;52.670;6.750;2022-08-16T14:50:11;30.20;71.30
60293;DHT22;52402;52.670;6.750;2022-08-16T14:52:43;30.30;71.50
60293;DHT22;52402;52.670;6.750;2022-08-16T14:55:10;30.30;71.30
60293;DHT22;52402;52.670;6.750;2022-08-16T14:57:36;29.90;72.00
60293;DHT22;52402;52.670;6.750;2022-08-16T15:00:04;29.80;72.90
60293;DHT22;52402;52.670;6.750;2022-08-16T15:02:30;29.80;72.50
60293;DHT22;52402;52.670;6.750;2022-08-16T15:04:57;30.00;73.70
60293;DHT22;52402;52.670;6.750;2022-08-16T15:07:23;30.20;74.20
60293;DHT22;52402;52.670;6.750;2022-08-16T15:09:49;30.10;73.70
60293;DHT22;52402;52.670;6.750;2022-08-16T15:12:17;30.20;74.00
60293;DHT22;52402;52.670;6.750;2022-08-16T15:14:44;30.20;75.00
60293;DHT22;52402;52.670;6.750;2022-08-16T15:17:12;30.20;74.70
60293;DHT22;52402;52.670;6.750;2022-08-16T15:19:39;30.00;74.90
60293;DHT22;52402;52.670;6.750;2022-08-16T15:22:13;29.90;74.70
60293;DHT22;52402;52.670;6.750;2022-08-16T15:24:41;29.60;75.60
60293;DHT22;52402;52.670;6.750;2022-08-16T15:27:07;29.40;76.10
60293;DHT22;52402;52.670;6.750;2022-08-16T15:29:33;29.30;76.50
60293;DHT22;52402;52.670;6.750;2022-08-16T15:31:59;29.00;76.70
60293;DHT22;52402;52.670;6.750;2022-08-16T15:34:25;29.10;76.80